sensor_id;sensor_type;location;lat;lon;timestamp;pressure;altitude;pressure_sealevel;temperature;humidity
45327;BME280;31062;49.678;24.560;2023-02-17T00:01:31;98536.31;;;4.29;63.39
45327;BME280;31062;49.678;24.560;2023-02-17T00:04:17;98538.59;;;4.57;62.83
45327;BME280;31062;49.678;24.560;2023-02-17T00:07:03;98524.72;;;4.36;63.25
45327;BME280;31062;49.678;24.560;2023-02-17T00:09:48;98397.88;;;3.46;63.12
45327;BME280;31062;49.678;24.560;2023-02-17T00:12:35;98583.25;;;4.71;63.51
45327;BME280;31062;49.678;24.560;2023-02-17T00:15:21;98548.28;;;4.45;63.49
45327;BME280;31062;49.678;24.560;2023-02-17T00:18:07;98585.59;;;4.67;63.46
45327;BME280;31062;49.678;24.560;2023-02-17T00:20:52;98582.19;;;4.61;63.38
45327;BME280;31062;49.678;24.560;2023-02-17T00:23:37;98400.94;;;3.42;63.51
45327;BME280;31062;49.678;24.560;2023-02-17T00:26:23;98583.25;;;4.58;63.62
45327;BME280;31062;49.678;24.560;2023-02-17T00:29:09;98467.66;;;3.77;63.68
45327;BME280;31062;49.678;24.560;2023-02-17T00:31:54;98551.00;;;4.32;63.63
45327;BME280;31062;49.678;24.560;2023-02-17T00:34:41;98578.06;;;4.54;63.60
45327;BME280;31062;49.678;24.560;2023-02-17T00:37:27;98550.69;;;4.22;63.72
45327;BME280;31062;49.678;24.560;2023-02-17T00:40:13;98514.22;;;3.95;63.40
45327;BME280;31062;49.678;24.560;2023-02-17T00:42:59;98590.41;;;4.47;63.70
45327;BME280;31062;49.678;24.560;2023-02-17T00:45:44;98590.50;;;4.42;63.89
45327;BME280;31062;49.678;24.560;2023-02-17T00:48:31;98582.59;;;4.38;63.93
45327;BME280;31062;49.678;24.560;2023-02-17T00:51:18;98363.22;;;2.84;63.78
45327;BME280;31062;49.678;24.560;2023-02-17T00:54:04;98580.88;;;4.35;64.19
45327;BME280;31062;49.678;24.560;2023-02-17T00:56:50;98573.50;;;4.30;63.92
45327;BME280;31062;49.678;24.560;2023-02-17T00:59:36;98446.34;;;3.38;63.83
45327;BME280;31062;49.678;24.560;2023-02-17T01:02:25;98565.88;;;4.23;63.94
45327;BME280;31062;49.678;24.560;2023-02-17T01:05:12;98579.19;;;4.32;64.16
45327;BME280;31062;49.678;24.560;2023-02-17T01:08:02;98401.66;;;3.11;64.33
45327;BME280;31062;49.678;24.560;2023-02-17T01:10:50;98544.75;;;4.05;64.38
45327;BME280;31062;49.678;24.560;2023-02-17T01:13:36;98562.94;;;4.21;64.73
45327;BME280;31062;49.678;24.560;2023-02-17T01:16:30;98431.03;;;3.29;64.80
45327;BME280;31062;49.678;24.560;2023-02-17T01:19:24;98529.31;;;4.02;64.81
45327;BME280;31062;49.678;24.560;2023-02-17T01:22:11;98574.75;;;4.29;64.90
45327;BME280;31062;49.678;24.560;2023-02-17T01:24:56;98576.56;;;4.27;64.95
45327;BME280;31062;49.678;24.560;2023-02-17T01:27:45;98589.63;;;4.21;64.89
45327;BME280;31062;49.678;24.560;2023-02-17T01:30:31;98508.16;;;3.84;65.13
45327;BME280;31062;49.678;24.560;2023-02-17T01:33:17;98348.41;;;2.74;65.11
45327;BME280;31062;49.678;24.560;2023-02-17T01:36:04;98389.84;;;3.03;65.33
45327;BME280;31062;49.678;24.560;2023-02-17T01:38:51;98595.34;;;4.23;65.41
45327;BME280;31062;49.678;24.560;2023-02-17T01:41:36;98568.63;;;4.23;65.78
45327;BME280;31062;49.678;24.560;2023-02-17T01:44:24;98540.53;;;4.04;65.93
45327;BME280;31062;49.678;24.560;2023-02-17T01:47:11;98561.88;;;4.24;65.83
45327;BME280;31062;49.678;24.560;2023-02-17T01:49:57;98529.31;;;4.02;65.52
45327;BME280;31062;49.678;24.560;2023-02-17T01:52:43;98567.34;;;4.24;65.70
45327;BME280;31062;49.678;24.560;2023-02-17T01:55:30;98584.13;;;4.21;65.63
45327;BME280;31062;49.678;24.560;2023-02-17T01:58:18;98471.31;;;3.66;65.30
45327;BME280;31062;49.678;24.560;2023-02-17T02:01:06;98557.63;;;4.23;65.83
45327;BME280;31062;49.678;24.560;2023-02-17T02:03:53;98544.56;;;4.16;65.56
45327;BME280;31062;49.678;24.560;2023-02-17T02:06:39;98370.88;;;3.05;65.81
45327;BME280;31062;49.678;24.560;2023-02-17T02:09:39;98572.31;;;4.26;65.76
45327;BME280;31062;49.678;24.560;2023-02-17T02:12:29;98502.22;;;3.98;65.85
45327;BME280;31062;49.678;24.560;2023-02-17T02:15:17;98501.88;;;4.02;65.95
45327;BME280;31062;49.678;24.560;2023-02-17T02:33:25;98565.44;;;4.19;66.24
45327;BME280;31062;49.678;24.560;2023-02-17T02:36:32;98401.72;;;3.24;66.55
45327;BME280;31062;49.678;24.560;2023-02-17T02:39:23;98447.16;;;3.64;66.46
45327;BME280;31062;49.678;24.560;2023-02-17T02:42:14;98358.97;;;3.02;66.58
45327;BME280;31062;49.678;24.560;2023-02-17T02:45:01;98377.97;;;3.13;66.67
45327;BME280;31062;49.678;24.560;2023-02-17T02:47:52;98535.50;;;4.21;66.61
45327;BME280;31062;49.678;24.560;2023-02-17T02:50:58;98569.91;;;4.22;66.80
45327;BME280;31062;49.678;24.560;2023-02-17T02:57:01;98522.53;;;3.90;66.87
45327;BME280;31062;49.678;24.560;2023-02-17T03:01:03;98435.34;;;3.56;66.76
45327;BME280;31062;49.678;24.560;2023-02-17T03:09:25;98562.47;;;4.17;66.77
45327;BME280;31062;49.678;24.560;2023-02-17T03:12:11;98525.34;;;4.16;66.69
45327;BME280;31062;49.678;24.560;2023-02-17T03:15:01;98502.78;;;3.78;66.73
45327;BME280;31062;49.678;24.560;2023-02-17T03:17:48;98491.91;;;3.73;67.16
45327;BME280;31062;49.678;24.560;2023-02-17T03:20:38;98350.63;;;2.95;66.51
45327;BME280;31062;49.678;24.560;2023-02-17T03:23:26;98349.13;;;2.94;66.47
45327;BME280;31062;49.678;24.560;2023-02-17T03:26:11;98535.25;;;4.19;66.54
45327;BME280;31062;49.678;24.560;2023-02-17T03:28:57;98528.72;;;4.09;66.75
45327;BME280;31062;49.678;24.560;2023-02-17T03:31:42;98533.59;;;4.16;66.86
45327;BME280;31062;49.678;24.560;2023-02-17T03:34:27;98538.31;;;4.16;66.81
45327;BME280;31062;49.678;24.560;2023-02-17T03:37:13;98476.97;;;3.55;66.83
45327;BME280;31062;49.678;24.560;2023-02-17T03:39:58;98341.31;;;2.84;67.01
45327;BME280;31062;49.678;24.560;2023-02-17T03:42:43;98557.63;;;4.10;66.80
45327;BME280;31062;49.678;24.560;2023-02-17T03:45:29;98534.63;;;4.13;67.01
45327;BME280;31062;49.678;24.560;2023-02-17T03:48:14;98379.91;;;3.00;66.53
45327;BME280;31062;49.678;24.560;2023-02-17T03:51:18;98395.59;;;3.18;66.80
45327;BME280;31062;49.678;24.560;2023-02-17T03:54:05;98390.41;;;3.14;66.94
45327;BME280;31062;49.678;24.560;2023-02-17T03:56:50;98535.13;;;4.11;66.95
45327;BME280;31062;49.678;24.560;2023-02-17T03:59:36;98501.81;;;3.76;66.77
45327;BME280;31062;49.678;24.560;2023-02-17T04:02:21;98512.25;;;4.09;66.60
45327;BME280;31062;49.678;24.560;2023-02-17T04:05:07;98371.31;;;3.09;66.65
45327;BME280;31062;49.678;24.560;2023-02-17T04:07:52;98369.00;;;3.13;66.86
45327;BME280;31062;49.678;24.560;2023-02-17T04:10:38;98520.91;;;4.13;66.70
45327;BME280;31062;49.678;24.560;2023-02-17T04:13:24;98538.19;;;4.08;66.70
45327;BME280;31062;49.678;24.560;2023-02-17T04:16:11;98502.75;;;4.10;66.86
45327;BME280;31062;49.678;24.560;2023-02-17T04:18:56;98515.63;;;4.15;66.67
45327;BME280;31062;49.678;24.560;2023-02-17T04:21:42;98328.47;;;2.79;66.50
45327;BME280;31062;49.678;24.560;2023-02-17T04:24:27;98509.09;;;4.18;66.69
45327;BME280;31062;49.678;24.560;2023-02-17T04:27:12;98307.59;;;2.76;66.42
45327;BME280;31062;49.678;24.560;2023-02-17T04:29:58;98436.97;;;3.46;66.33
45327;BME280;31062;49.678;24.560;2023-02-17T04:32:43;98367.75;;;3.14;66.28
45327;BME280;31062;49.678;24.560;2023-02-17T04:35:29;98503.41;;;4.16;66.51
45327;BME280;31062;49.678;24.560;2023-02-17T04:38:15;98429.44;;;3.65;66.25
45327;BME280;31062;49.678;24.560;2023-02-17T04:41:01;98317.63;;;2.87;66.42
45327;BME280;31062;49.678;24.560;2023-02-17T04:43:46;98479.72;;;3.87;66.48
45327;BME280;31062;49.678;24.560;2023-02-17T04:46:31;98510.56;;;4.19;66.60
45327;BME280;31062;49.678;24.560;2023-02-17T04:49:17;98481.00;;;3.99;66.25
45327;BME280;31062;49.678;24.560;2023-02-17T04:52:02;98340.22;;;3.06;66.42
45327;BME280;31062;49.678;24.560;2023-02-17T04:54:48;98510.78;;;4.21;66.31
45327;BME280;31062;49.678;24.560;2023-02-17T04:57:34;98413.69;;;3.53;66.19
45327;BME280;31062;49.678;24.560;2023-02-17T05:00:20;98350.06;;;3.15;66.35
45327;BME280;31062;49.678;24.560;2023-02-17T05:03:05;98511.63;;;4.16;66.37
45327;BME280;31062;49.678;24.560;2023-02-17T05:05:51;98453.31;;;3.84;66.73
45327;BME280;31062;49.678;24.560;2023-02-17T05:08:37;98324.28;;;2.92;66.44
45327;BME280;31062;49.678;24.560;2023-02-17T05:11:22;98476.13;;;3.92;66.61
45327;BME280;31062;49.678;24.560;2023-02-17T05:14:07;98443.06;;;3.71;66.45
45327;BME280;31062;49.678;24.560;2023-02-17T05:16:53;98540.97;;;4.21;66.45
45327;BME280;31062;49.678;24.560;2023-02-17T05:19:38;98510.56;;;4.19;66.36
45327;BME280;31062;49.678;24.560;2023-02-17T05:22:25;98548.25;;;4.19;66.53
45327;BME280;31062;49.678;24.560;2023-02-17T05:25:11;98448.44;;;3.77;66.70
45327;BME280;31062;49.678;24.560;2023-02-17T05:27:56;98515.22;;;4.24;66.59
45327;BME280;31062;49.678;24.560;2023-02-17T05:30:42;98333.03;;;2.71;66.39
45327;BME280;31062;49.678;24.560;2023-02-17T05:33:27;98479.94;;;4.02;66.63
45327;BME280;31062;49.678;24.560;2023-02-17T05:36:13;98528.94;;;4.24;66.53
45327;BME280;31062;49.678;24.560;2023-02-17T05:38:59;98348.97;;;3.05;66.69
45327;BME280;31062;49.678;24.560;2023-02-17T05:41:44;98493.25;;;4.11;66.66
45327;BME280;31062;49.678;24.560;2023-02-17T05:44:30;98354.91;;;3.09;66.51
45327;BME280;31062;49.678;24.560;2023-02-17T05:47:15;98446.03;;;3.73;66.60
45327;BME280;31062;49.678;24.560;2023-02-17T05:50:01;98485.94;;;3.87;66.56
45327;BME280;31062;49.678;24.560;2023-02-17T05:52:46;98556.38;;;4.24;66.55
45327;BME280;31062;49.678;24.560;2023-02-17T05:55:32;98378.75;;;3.27;66.53
45327;BME280;31062;49.678;24.560;2023-02-17T05:58:17;98396.69;;;3.41;66.58
45327;BME280;31062;49.678;24.560;2023-02-17T06:01:10;98569.09;;;4.40;66.83
45327;BME280;31062;49.678;24.560;2023-02-17T06:03:56;98532.13;;;4.41;66.54
45327;BME280;31062;49.678;24.560;2023-02-17T06:06:41;98375.47;;;3.28;66.74
45327;BME280;31062;49.678;24.560;2023-02-17T06:09:27;98537.00;;;4.48;66.67
45327;BME280;31062;49.678;24.560;2023-02-17T06:12:12;98541.44;;;4.51;66.65
45327;BME280;31062;49.678;24.560;2023-02-17T06:14:58;98351.38;;;3.27;66.59
45327;BME280;31062;49.678;24.560;2023-02-17T06:17:43;98500.56;;;4.35;66.31
45327;BME280;31062;49.678;24.560;2023-02-17T06:20:29;98537.97;;;4.64;66.59
45327;BME280;31062;49.678;24.560;2023-02-17T06:23:15;98386.66;;;3.62;66.12
45327;BME280;31062;49.678;24.560;2023-02-17T06:26:00;98532.56;;;4.72;66.46
45327;BME280;31062;49.678;24.560;2023-02-17T06:28:46;98532.25;;;4.75;66.12
45327;BME280;31062;49.678;24.560;2023-02-17T06:31:32;98479.78;;;4.39;66.15
45327;BME280;31062;49.678;24.560;2023-02-17T06:34:18;98356.25;;;3.60;66.18
45327;BME280;31062;49.678;24.560;2023-02-17T06:37:03;98438.38;;;4.11;65.83
45327;BME280;31062;49.678;24.560;2023-02-17T06:39:48;98354.69;;;3.65;65.95
45327;BME280;31062;49.678;24.560;2023-02-17T06:42:34;98541.22;;;4.89;66.14
45327;BME280;31062;49.678;24.560;2023-02-17T06:45:19;98349.94;;;3.65;66.04
45327;BME280;31062;49.678;24.560;2023-02-17T06:48:05;98360.06;;;3.70;66.13
45327;BME280;31062;49.678;24.560;2023-02-17T06:50:51;98544.28;;;4.99;66.12
45327;BME280;31062;49.678;24.560;2023-02-17T06:53:38;98518.63;;;4.70;65.86
45327;BME280;31062;49.678;24.560;2023-02-17T06:56:24;98541.00;;;5.00;66.03
45327;BME280;31062;49.678;24.560;2023-02-17T06:59:10;98536.88;;;4.93;65.90
45327;BME280;31062;49.678;24.560;2023-02-17T07:01:56;98552.41;;;5.04;65.90
45327;BME280;31062;49.678;24.560;2023-02-17T07:04:45;98550.91;;;5.03;65.50
45327;BME280;31062;49.678;24.560;2023-02-17T07:07:34;98546.16;;;5.04;65.40
45327;BME280;31062;49.678;24.560;2023-02-17T07:10:22;98549.88;;;5.06;65.58
45327;BME280;31062;49.678;24.560;2023-02-17T07:13:09;98551.34;;;5.07;65.47
45327;BME280;31062;49.678;24.560;2023-02-17T07:16:01;98549.22;;;5.13;65.18
45327;BME280;31062;49.678;24.560;2023-02-17T07:18:47;98530.19;;;5.15;64.80
45327;BME280;31062;49.678;24.560;2023-02-17T07:21:34;98538.69;;;5.38;65.04
45327;BME280;31062;49.678;24.560;2023-02-17T07:24:20;98534.72;;;5.60;64.75
45327;BME280;31062;49.678;24.560;2023-02-17T07:27:08;98358.34;;;4.46;63.82
45327;BME280;31062;49.678;24.560;2023-02-17T07:29:55;98535.44;;;5.94;63.86
45327;BME280;31062;49.678;24.560;2023-02-17T07:32:41;98363.47;;;4.97;62.68
45327;BME280;31062;49.678;24.560;2023-02-17T07:35:26;98500.59;;;5.97;62.50
45327;BME280;31062;49.678;24.560;2023-02-17T07:38:12;98357.56;;;5.14;62.54
45327;BME280;31062;49.678;24.560;2023-02-17T07:41:07;98537.97;;;6.34;61.39
45327;BME280;31062;49.678;24.560;2023-02-17T07:43:55;98514.22;;;6.51;61.33
45327;BME280;31062;49.678;24.560;2023-02-17T07:46:41;98532.34;;;6.75;60.81
45327;BME280;31062;49.678;24.560;2023-02-17T07:49:27;98519.47;;;6.70;60.11
45327;BME280;31062;49.678;24.560;2023-02-17T07:52:16;98462.56;;;6.37;59.92
45327;BME280;31062;49.678;24.560;2023-02-17T07:55:02;98476.41;;;6.52;59.49
45327;BME280;31062;49.678;24.560;2023-02-17T07:57:48;98524.72;;;6.89;58.71
45327;BME280;31062;49.678;24.560;2023-02-17T08:00:34;98534.63;;;6.92;59.10
45327;BME280;31062;49.678;24.560;2023-02-17T08:03:19;98529.19;;;7.00;58.97
45327;BME280;31062;49.678;24.560;2023-02-17T08:06:11;98513.34;;;6.92;58.22
45327;BME280;31062;49.678;24.560;2023-02-17T08:08:57;98512.84;;;7.02;58.64
45327;BME280;31062;49.678;24.560;2023-02-17T08:12:01;98519.31;;;7.12;58.50
45327;BME280;31062;49.678;24.560;2023-02-17T08:15:07;98478.97;;;6.93;58.18
45327;BME280;31062;49.678;24.560;2023-02-17T08:17:54;98348.59;;;6.11;58.04
45327;BME280;31062;49.678;24.560;2023-02-17T08:20:40;98533.41;;;7.44;58.37
45327;BME280;31062;49.678;24.560;2023-02-17T08:23:25;98536.38;;;7.61;58.33
45327;BME280;31062;49.678;24.560;2023-02-17T08:26:12;98532.91;;;7.76;58.27
45327;BME280;31062;49.678;24.560;2023-02-17T08:28:59;98516.91;;;7.74;57.69
45327;BME280;31062;49.678;24.560;2023-02-17T08:31:46;98530.53;;;7.88;56.89
45327;BME280;31062;49.678;24.560;2023-02-17T08:34:36;98467.38;;;7.46;56.28
45327;BME280;31062;49.678;24.560;2023-02-17T08:37:22;98497.75;;;7.61;56.61
45327;BME280;31062;49.678;24.560;2023-02-17T08:40:08;98521.69;;;7.82;57.03
45327;BME280;31062;49.678;24.560;2023-02-17T08:42:55;98361.34;;;6.81;57.60
45327;BME280;31062;49.678;24.560;2023-02-17T08:45:41;98532.75;;;7.97;57.28
45327;BME280;31062;49.678;24.560;2023-02-17T08:48:27;98400.94;;;7.14;57.79
45327;BME280;31062;49.678;24.560;2023-02-17T08:51:18;98460.78;;;7.64;57.16
45327;BME280;31062;49.678;24.560;2023-02-17T08:54:08;98520.97;;;8.19;56.66
45327;BME280;31062;49.678;24.560;2023-02-17T08:56:55;98524.50;;;8.27;55.78
45327;BME280;31062;49.678;24.560;2023-02-17T08:59:43;98398.81;;;7.50;55.65
45327;BME280;31062;49.678;24.560;2023-02-17T09:02:33;98516.59;;;8.39;54.85
45327;BME280;31062;49.678;24.560;2023-02-17T09:05:21;98371.19;;;7.35;55.12
45327;BME280;31062;49.678;24.560;2023-02-17T09:08:08;98306.09;;;7.02;55.56
45327;BME280;31062;49.678;24.560;2023-02-17T09:10:55;98453.59;;;8.14;54.71
45327;BME280;31062;49.678;24.560;2023-02-17T09:13:43;98520.25;;;8.56;54.93
45327;BME280;31062;49.678;24.560;2023-02-17T09:16:33;98516.53;;;8.62;54.44
45327;BME280;31062;49.678;24.560;2023-02-17T09:19:22;98351.16;;;7.50;53.95
45327;BME280;31062;49.678;24.560;2023-02-17T09:22:09;98501.78;;;8.67;53.53
45327;BME280;31062;49.678;24.560;2023-02-17T09:25:14;98420.28;;;8.12;53.69
45327;BME280;31062;49.678;24.560;2023-02-17T09:28:00;98471.28;;;8.34;53.58
45327;BME280;31062;49.678;24.560;2023-02-17T09:30:46;98429.69;;;8.32;53.94
45327;BME280;31062;49.678;24.560;2023-02-17T09:33:33;98426.72;;;8.30;54.26
45327;BME280;31062;49.678;24.560;2023-02-17T09:36:21;98480.94;;;8.81;54.26
45327;BME280;31062;49.678;24.560;2023-02-17T09:39:07;98482.56;;;8.84;53.48
45327;BME280;31062;49.678;24.560;2023-02-17T09:41:57;98315.63;;;7.84;53.72
45327;BME280;31062;49.678;24.560;2023-02-17T09:44:47;98491.31;;;9.13;52.77
45327;BME280;31062;49.678;24.560;2023-02-17T09:47:54;98333.25;;;8.04;53.23
45327;BME280;31062;49.678;24.560;2023-02-17T09:51:08;98465.00;;;9.04;53.38
45327;BME280;31062;49.678;24.560;2023-02-17T09:56:58;98450.47;;;8.96;52.83
45327;BME280;31062;49.678;24.560;2023-02-17T09:59:53;98284.66;;;8.01;53.30
45327;BME280;31062;49.678;24.560;2023-02-17T10:06:25;98471.56;;;9.49;53.43
45327;BME280;31062;49.678;24.560;2023-02-17T10:09:17;98470.06;;;9.55;53.54
45327;BME280;31062;49.678;24.560;2023-02-17T10:12:07;98463.75;;;9.62;54.20
45327;BME280;31062;49.678;24.560;2023-02-17T10:15:06;98454.81;;;9.71;53.81
45327;BME280;31062;49.678;24.560;2023-02-17T10:18:03;98357.81;;;9.12;53.83
45327;BME280;31062;49.678;24.560;2023-02-17T10:21:03;98308.41;;;8.84;53.43
45327;BME280;31062;49.678;24.560;2023-02-17T10:23:51;98444.03;;;9.83;52.24
45327;BME280;31062;49.678;24.560;2023-02-17T10:26:50;98319.47;;;8.84;51.61
45327;BME280;31062;49.678;24.560;2023-02-17T10:30:07;98306.59;;;8.79;52.07
45327;BME280;31062;49.678;24.560;2023-02-17T10:33:05;98438.59;;;9.68;52.08
45327;BME280;31062;49.678;24.560;2023-02-17T10:42:35;98365.41;;;9.36;52.21
45327;BME280;31062;49.678;24.560;2023-02-17T10:45:35;98421.53;;;9.79;53.57
45327;BME280;31062;49.678;24.560;2023-02-17T10:48:33;98315.03;;;9.13;52.56
45327;BME280;31062;49.678;24.560;2023-02-17T10:51:26;98436.94;;;9.90;52.69
45327;BME280;31062;49.678;24.560;2023-02-17T10:54:39;98407.31;;;9.82;52.70
45327;BME280;31062;49.678;24.560;2023-02-17T10:57:31;98224.00;;;8.58;53.41
45327;BME280;31062;49.678;24.560;2023-02-17T11:00:18;98385.03;;;9.73;52.95
45327;BME280;31062;49.678;24.560;2023-02-17T11:03:03;98414.47;;;9.86;52.96
45327;BME280;31062;49.678;24.560;2023-02-17T11:05:54;98374.84;;;9.58;52.91
45327;BME280;31062;49.678;24.560;2023-02-17T11:08:49;98325.72;;;9.17;52.21
45327;BME280;31062;49.678;24.560;2023-02-17T11:11:35;98397.25;;;9.70;52.88
45327;BME280;31062;49.678;24.560;2023-02-17T11:14:32;98315.41;;;9.17;52.93
45327;BME280;31062;49.678;24.560;2023-02-17T11:26:08;98342.41;;;9.51;53.24
45327;BME280;31062;49.678;24.560;2023-02-17T11:28:53;98376.84;;;9.82;54.28
45327;BME280;31062;49.678;24.560;2023-02-17T11:31:40;98340.44;;;9.69;54.01
45327;BME280;31062;49.678;24.560;2023-02-17T11:34:28;98360.81;;;9.98;52.71
45327;BME280;31062;49.678;24.560;2023-02-17T11:37:18;98366.69;;;10.02;53.71
45327;BME280;31062;49.678;24.560;2023-02-17T11:40:22;98304.94;;;9.75;53.80
45327;BME280;31062;49.678;24.560;2023-02-17T11:43:15;98192.22;;;9.16;53.12
45327;BME280;31062;49.678;24.560;2023-02-17T11:52:30;98382.53;;;10.44;53.36
45327;BME280;31062;49.678;24.560;2023-02-17T11:56:40;98358.78;;;10.50;52.65
45327;BME280;31062;49.678;24.560;2023-02-17T12:09:06;98337.50;;;10.70;52.93
45327;BME280;31062;49.678;24.560;2023-02-17T12:24:04;98327.97;;;10.63;51.17
45327;BME280;31062;49.678;24.560;2023-02-17T12:30:11;98338.50;;;10.48;51.35
45327;BME280;31062;49.678;24.560;2023-02-17T12:36:10;98322.22;;;10.35;51.63
45327;BME280;31062;49.678;24.560;2023-02-17T12:39:09;98230.69;;;9.81;51.18
45327;BME280;31062;49.678;24.560;2023-02-17T12:42:08;98278.41;;;10.06;51.45
45327;BME280;31062;49.678;24.560;2023-02-17T12:45:02;98295.28;;;10.18;50.75
45327;BME280;31062;49.678;24.560;2023-02-17T12:50:51;98138.59;;;9.12;51.17
45327;BME280;31062;49.678;24.560;2023-02-17T12:59:32;98233.13;;;9.94;50.89
45327;BME280;31062;49.678;24.560;2023-02-17T13:02:23;98294.16;;;10.13;50.94
45327;BME280;31062;49.678;24.560;2023-02-17T13:05:23;98210.47;;;9.54;50.96
45327;BME280;31062;49.678;24.560;2023-02-17T13:08:20;98281.31;;;10.08;50.90
45327;BME280;31062;49.678;24.560;2023-02-17T13:11:12;98134.22;;;9.09;51.27
45327;BME280;31062;49.678;24.560;2023-02-17T13:14:09;98280.19;;;10.11;51.08
45327;BME280;31062;49.678;24.560;2023-02-17T13:16:56;98236.22;;;9.81;50.28
45327;BME280;31062;49.678;24.560;2023-02-17T13:19:41;98239.84;;;9.83;50.98
45327;BME280;31062;49.678;24.560;2023-02-17T13:22:26;98228.88;;;9.93;50.82
45327;BME280;31062;49.678;24.560;2023-02-17T13:25:27;98103.06;;;9.08;51.01
45327;BME280;31062;49.678;24.560;2023-02-17T13:28:31;98250.59;;;10.14;51.40
45327;BME280;31062;49.678;24.560;2023-02-17T13:31:23;98185.72;;;9.73;51.74
45327;BME280;31062;49.678;24.560;2023-02-17T13:34:09;98253.34;;;10.14;51.58
45327;BME280;31062;49.678;24.560;2023-02-17T13:36:56;98246.59;;;10.07;51.39
45327;BME280;31062;49.678;24.560;2023-02-17T13:39:42;98257.38;;;10.03;51.38
45327;BME280;31062;49.678;24.560;2023-02-17T13:42:39;98198.19;;;9.81;51.62
45327;BME280;31062;49.678;24.560;2023-02-17T13:45:28;98242.38;;;10.06;51.11
45327;BME280;31062;49.678;24.560;2023-02-17T13:51:07;98253.59;;;10.08;51.27
45327;BME280;31062;49.678;24.560;2023-02-17T13:53:54;98108.09;;;9.19;50.79
45327;BME280;31062;49.678;24.560;2023-02-17T13:56:41;98231.13;;;10.04;51.27
45327;BME280;31062;49.678;24.560;2023-02-17T13:59:26;98233.44;;;9.98;51.08
45327;BME280;31062;49.678;24.560;2023-02-17T14:02:20;98158.72;;;9.47;50.67
45327;BME280;31062;49.678;24.560;2023-02-17T14:05:26;98061.09;;;8.85;51.08
45327;BME280;31062;49.678;24.560;2023-02-17T14:08:25;98111.63;;;9.20;51.18
45327;BME280;31062;49.678;24.560;2023-02-17T14:11:13;98216.16;;;9.90;50.91
45327;BME280;31062;49.678;24.560;2023-02-17T14:14:06;98172.56;;;9.64;50.09
45327;BME280;31062;49.678;24.560;2023-02-17T14:19:47;98235.53;;;9.90;49.85
45327;BME280;31062;49.678;24.560;2023-02-17T14:22:34;98111.06;;;9.21;50.21
45327;BME280;31062;49.678;24.560;2023-02-17T14:25:27;98036.72;;;8.74;49.35
45327;BME280;31062;49.678;24.560;2023-02-17T14:28:24;98100.38;;;9.18;49.74
45327;BME280;31062;49.678;24.560;2023-02-17T14:31:18;98156.44;;;9.53;49.68
45327;BME280;31062;49.678;24.560;2023-02-17T14:34:04;98194.50;;;9.79;49.87
45327;BME280;31062;49.678;24.560;2023-02-17T14:36:50;98063.88;;;8.85;49.45
45327;BME280;31062;49.678;24.560;2023-02-17T14:39:36;98150.91;;;9.18;48.87
45327;BME280;31062;49.678;24.560;2023-02-17T14:42:21;98036.28;;;8.60;49.80
45327;BME280;31062;49.678;24.560;2023-02-17T14:45:07;98175.00;;;9.42;49.91
45327;BME280;31062;49.678;24.560;2023-02-17T14:47:53;98074.91;;;8.85;50.04
45327;BME280;31062;49.678;24.560;2023-02-17T14:50:39;98043.84;;;8.59;49.62
45327;BME280;31062;49.678;24.560;2023-02-17T14:53:33;98040.75;;;8.55;50.36
45327;BME280;31062;49.678;24.560;2023-02-17T14:56:25;98044.19;;;8.64;49.91
45327;BME280;31062;49.678;24.560;2023-02-17T14:59:11;98177.44;;;9.56;50.53
45327;BME280;31062;49.678;24.560;2023-02-17T15:01:56;98009.06;;;8.39;49.99
45327;BME280;31062;49.678;24.560;2023-02-17T15:04:42;98175.47;;;9.49;50.06
45327;BME280;31062;49.678;24.560;2023-02-17T15:07:28;98099.00;;;8.92;50.40
45327;BME280;31062;49.678;24.560;2023-02-17T15:10:18;98167.66;;;9.37;50.16
45327;BME280;31062;49.678;24.560;2023-02-17T15:13:05;98125.75;;;9.07;50.08
45327;BME280;31062;49.678;24.560;2023-02-17T15:15:51;98163.91;;;9.25;50.30
45327;BME280;31062;49.678;24.560;2023-02-17T15:18:36;98149.84;;;9.14;50.30
45327;BME280;31062;49.678;24.560;2023-02-17T15:21:29;98022.38;;;8.26;50.54
45327;BME280;31062;49.678;24.560;2023-02-17T15:24:22;98117.69;;;8.84;50.47
45327;BME280;31062;49.678;24.560;2023-02-17T15:27:14;98155.84;;;9.02;50.55
45327;BME280;31062;49.678;24.560;2023-02-17T15:30:01;98068.16;;;8.36;50.98
45327;BME280;31062;49.678;24.560;2023-02-17T15:32:47;98100.75;;;8.63;51.43
45327;BME280;31062;49.678;24.560;2023-02-17T15:35:33;98138.25;;;8.90;51.78
45327;BME280;31062;49.678;24.560;2023-02-17T15:38:19;98149.31;;;8.90;51.05
45327;BME280;31062;49.678;24.560;2023-02-17T15:41:11;97983.00;;;7.75;52.07
45327;BME280;31062;49.678;24.560;2023-02-17T15:43:59;98087.50;;;8.36;52.14
45327;BME280;31062;49.678;24.560;2023-02-17T15:46:47;98158.03;;;8.87;51.95
45327;BME280;31062;49.678;24.560;2023-02-17T15:49:34;98153.78;;;8.86;52.17
45327;BME280;31062;49.678;24.560;2023-02-17T15:52:19;98149.06;;;8.79;52.71
45327;BME280;31062;49.678;24.560;2023-02-17T15:55:06;98153.00;;;8.93;55.42
45327;BME280;31062;49.678;24.560;2023-02-17T15:57:55;98123.22;;;8.84;52.92
45327;BME280;31062;49.678;24.560;2023-02-17T16:00:43;98125.31;;;8.76;52.92
45327;BME280;31062;49.678;24.560;2023-02-17T16:03:34;98151.84;;;8.96;52.53
45327;BME280;31062;49.678;24.560;2023-02-17T16:06:21;97958.47;;;7.62;52.88
45327;BME280;31062;49.678;24.560;2023-02-17T16:09:06;98133.22;;;8.79;53.86
45327;BME280;31062;49.678;24.560;2023-02-17T16:11:53;98107.81;;;8.56;54.01
45327;BME280;31062;49.678;24.560;2023-02-17T16:14:40;98136.22;;;8.74;54.71
45327;BME280;31062;49.678;24.560;2023-02-17T16:17:26;98148.06;;;8.67;55.29
45327;BME280;31062;49.678;24.560;2023-02-17T16:22:59;97996.41;;;7.54;55.82
45327;BME280;31062;49.678;24.560;2023-02-17T16:25:46;98040.44;;;7.69;56.75
45327;BME280;31062;49.678;24.560;2023-02-17T16:28:32;97994.25;;;7.45;57.13
45327;BME280;31062;49.678;24.560;2023-02-17T16:31:18;98042.28;;;7.74;57.57
45327;BME280;31062;49.678;24.560;2023-02-17T16:34:03;98094.69;;;8.07;58.67